TimeEST,TemperatureF,Dew PointF,Humidity,Sea Level PressureIn,VisibilityMPH,Wind Direction,Wind SpeedMPH,Gust SpeedMPH,PrecipitationIn,Events,Conditions,WindDirDegrees,DateUTC
12:51 AM,31.1,21.0,66,29.74,10.0,Variable,3.5,-,N/A,,Overcast,0,2013-01-01 05:51:00
1:51 AM,32.0,21.0,64,29.75,10.0,Calm,Calm,-,N/A,,Overcast,0,2013-01-01 06:51:00
2:51 AM,32.9,22.1,65,29.73,10.0,Calm,Calm,-,N/A,,Overcast,0,2013-01-01 07:51:00
3:51 AM,32.9,23.0,67,29.71,10.0,Calm,Calm,-,N/A,,Mostly Cloudy,0,2013-01-01 08:51:00
4:51 AM,34.0,25.2,70,29.72,10.0,Calm,Calm,-,N/A,,Overcast,0,2013-01-01 09:51:00
5:51 AM,34.0,24.1,67,29.73,10.0,Calm,Calm,-,N/A,,Mostly Cloudy,0,2013-01-01 10:51:00
6:51 AM,34.9,23.0,62,29.74,10.0,Variable,5.8,-,N/A,,Mostly Cloudy,0,2013-01-01 11:51:00
7:51 AM,34.9,21.0,57,29.76,10.0,Calm,Calm,-,N/A,,Overcast,0,2013-01-01 12:51:00
8:51 AM,34.9,15.1,44,29.77,10.0,NW,15.0,-,N/A,,Scattered Clouds,310,2013-01-01 13:51:00
9:51 AM,32.9,13.1,44,29.81,10.0,WNW,15.0,32.2,N/A,,Clear,300,2013-01-01 14:51:00
10:51 AM,32.9,13.1,44,29.81,10.0,NW,15.0,-,N/A,,Partly Cloudy,320,2013-01-01 15:51:00
11:51 AM,32.9,13.1,44,29.79,10.0,NW,17.3,-,N/A,,Mostly Cloudy,320,2013-01-01 16:51:00
12:51 PM,32.9,10.0,39,29.77,10.0,WNW,16.1,-,N/A,,Clear,300,2013-01-01 17:51:00
1:51 PM,32.9,11.1,40,29.76,10.0,WNW,18.4,-,N/A,,Clear,300,2013-01-01 18:51:00
2:51 PM,31.1,10.0,41,29.78,10.0,NW,21.9,35.7,N/A,,Clear,310,2013-01-01 19:51:00
3:51 PM,29.1,9.1,43,29.79,6.0,NW,11.5,33.4,N/A,,Haze,310,2013-01-01 20:51:00
4:51 PM,27.1,10.0,49,29.82,10.0,NW,25.3,31.1,N/A,,Clear,310,2013-01-01 21:51:00
5:10 PM,24.8,10.4,54,29.82,10.0,NNW,28.8,42.6,N/A,,Clear,330,2013-01-01 22:10:00
5:51 PM,25.2,8.1,48,29.85,10.0,NW,35.7,46.0,N/A,,Clear,320,2013-01-01 22:51:00
6:51 PM,23.0,7.2,51,29.89,10.0,NNW,19.6,-,N/A,,Clear,330,2013-01-01 23:51:00
7:51 PM,20.1,6.1,55,29.91,10.0,NW,9.2,-,N/A,,Clear,320,2013-01-02 00:51:00
8:51 PM,19.0,4.1,52,29.91,10.0,NW,12.7,-,N/A,,Clear,320,2013-01-02 01:51:00
9:51 PM,16.2,2.1,54,29.93,10.0,NNW,8.1,-,N/A,,Clear,340,2013-01-02 02:51:00
10:51 PM,17.1,2.1,52,29.95,10.0,WNW,9.2,-,N/A,,Clear,300,2013-01-02 03:51:00
11:51 PM,15.1,1.0,54,29.95,10.0,NW,11.5,-,N/A,,Clear,310,2013-01-02 04:51:00